Airfield :
LOGIN :

Register | Disclaimer

   EN    FR    IT 

 










Legend :    VFR   Marginal VFR   IFR   Intensive IFR   Very Intensive IFR
Visi :
Ceiling :
>= 8 km
>= 3000ft
5 to 8 km
1000 to 3000 ft
1500m to 5 km
500 to 1000 ft
800 to 1500m
200 to 500 ft
< 800m
< 200 ft
Symbols :   Thunderstorms  Fog  Heavy snow  Heavy precipitations  Wind > 20 kt
SIGMETs :     Misc.  Thunderstorms  Icing  Turbulence  Mountain Waves  Volcanic Ashes






- Airport Elevation : 143 ft
- IATA code : VDP


EKVD - Kolding Vamdrup

CURRENT METAR :
  • 190650Z 28011KT 9999 SCT020 15/09 Q1014

EXPIRED METARs :
  • 190550Z 28010KT 9999 FEW021 13/10 Q1014
  • 190520Z AUTO 30008KT //// ///////// 12/10 Q1014
  • 190450Z AUTO 28004KT //// ///////// 11/10 Q1014
  • 190420Z AUTO 27005KT //// ///////// 10/10 Q1014
  • 190350Z AUTO 27004KT //// ///////// 10/10 Q1014
  • 190320Z AUTO 25003KT //// ///////// 09/08 Q1014
  • 190250Z AUTO 25003KT //// ///////// 09/09 Q1014
  • 190220Z AUTO 26004KT //// ///////// 09/08 Q1014
  • 190150Z AUTO 27005KT //// ///////// 10/09 Q1014

Expired Forecast.



MET'MAP, your aeronautical weather chart ! - Copyright ORBIFLY December 2007 - Disclaimer

ORBIFLY MET'MAP TEAM :

Programming & Development : Alexandra Zaïnal
Original concept : Baudouin d'Aumeries
Technical & hardware support : Manuel Goepfert
Assistance : Marc-Olivier Méhu




SOURCES & CREDITS :

   NOAA